Terminal Aerodrome Forecast
Issued by NWS

Home | Current Version | Previous Version | Text Only | Print | Product List | Glossary On
Versions: 1 2 3 4 5 6 7 8 9 10 11 12 13 14 15 16 17 18 19 20 21 22 23 24 25 26 27 28 29 30 31 32
000
FTUS42 KMLB 261913 AAA
TAFFPR
TAF AMD
KFPR 261913Z 2619/2718 16011KT P6SM VCSH SCT035 BKN080
      TEMPO 2620/2622 3SM TSRA BKN035CB
     FM270000 21004KT P6SM VCSH SCT040 OVC080
     FM270500 22008KT P6SM SCT030 OVC100
     FM271400 22014G20KT P6SM VCSH SCT025 BKN060=

USA.gov is the U.S. government's official web portal to all federal, state and local government web resources and services.